Time;durP1;ratioP1;P1;durP2;ratioP2;P2;SDS_P1;SDS_P2;PMS_P1;PMS_P2;Temp;Humidity;BMP_temperature;BMP_pressure;BME280_temperature;BME280_humidity;BME280_pressure;Samples;Min_cycle;Max_cycle;Signal;HPM_P1;HPM_P2
2023/10/22 00:02:11;;;;;;;0.80;0.40;;;21.00;49.60;;;;;;4988071;28;20116;-51
2023/10/22 00:04:40;;;;;;;1.77;0.45;;;21.00;49.60;;;;;;4986100;28;20090;-50
2023/10/22 00:07:06;;;;;;;0.57;0.20;;;21.00;49.60;;;;;;4995333;28;20057;-54
2023/10/22 00:09:32;;;;;;;2.13;0.47;;;21.00;49.60;;;;;;4996273;28;20096;-47
2023/10/22 00:11:58;;;;;;;1.70;0.30;;;21.00;49.60;;;;;;4988264;28;20034;-51
2023/10/22 00:14:24;;;;;;;0.60;0.30;;;21.00;49.70;;;;;;4987172;28;20044;-56
2023/10/22 00:16:50;;;;;;;0.60;0.30;;;21.00;49.70;;;;;;4991395;28;20537;-54
2023/10/22 00:19:16;;;;;;;0.50;0.30;;;21.00;49.70;;;;;;4994483;28;20350;-52
2023/10/22 00:21:42;;;;;;;1.08;0.30;;;21.00;49.80;;;;;;4985514;28;20426;-49
2023/10/22 00:24:08;;;;;;;1.08;0.40;;;21.00;49.80;;;;;;4986200;28;20030;-52
2023/10/22 00:26:34;;;;;;;1.05;0.35;;;21.00;49.80;;;;;;4977248;28;21764;-47
2023/10/22 00:29:00;;;;;;;1.23;0.50;;;21.00;49.90;;;;;;4989137;28;20184;-50
2023/10/22 00:31:26;;;;;;;1.08;0.40;;;21.00;49.90;;;;;;4977063;28;20042;-52
2023/10/22 00:33:52;;;;;;;0.68;0.20;;;21.00;49.90;;;;;;4977494;28;20026;-49
2023/10/22 00:36:18;;;;;;;1.05;0.40;;;21.00;49.90;;;;;;4977625;28;20491;-51
2023/10/22 00:38:43;;;;;;;0.52;0.20;;;21.00;50.00;;;;;;4979868;28;20088;-51
2023/10/22 00:41:10;;;;;;;0.47;0.32;;;21.00;50.00;;;;;;4976445;28;20140;-52
2023/10/22 00:43:36;;;;;;;0.60;0.30;;;21.00;50.00;;;;;;4985926;28;20040;-49
2023/10/22 00:46:02;;;;;;;1.33;0.30;;;21.00;50.00;;;;;;4976322;28;20046;-52
2023/10/22 00:48:29;;;;;;;0.70;0.35;;;21.00;50.00;;;;;;4987307;28;20076;-53
2023/10/22 00:50:56;;;;;;;0.40;0.22;;;21.00;50.00;;;;;;4985866;28;20053;-48
2023/10/22 00:53:27;;;;;;;1.50;0.40;;;21.00;50.00;;;;;;4986673;28;20038;-51
2023/10/22 00:55:53;;;;;;;0.63;0.30;;;21.00;50.00;;;;;;4986440;28;20033;-50
2023/10/22 00:58:20;;;;;;;0.50;0.40;;;21.00;50.00;;;;;;4992012;28;20034;-53
2023/10/22 01:00:46;;;;;;;2.08;0.35;;;20.90;50.00;;;;;;4986342;28;20031;-47
2023/10/22 01:03:12;;;;;;;0.45;0.30;;;20.90;50.00;;;;;;4986991;28;20045;-52
2023/10/22 01:05:38;;;;;;;1.38;0.40;;;21.00;50.00;;;;;;4985963;28;20128;-51
2023/10/22 01:08:07;;;;;;;0.73;0.40;;;21.00;50.00;;;;;;4999394;28;20437;-47
2023/10/22 01:10:33;;;;;;;3.65;0.40;;;20.90;50.00;;;;;;4987480;28;20041;-49
2023/10/22 01:13:00;;;;;;;0.32;0.28;;;20.90;50.00;;;;;;4986674;28;20038;-51
2023/10/22 01:15:26;;;;;;;0.47;0.20;;;20.90;50.00;;;;;;4976239;28;20096;-49
2023/10/22 01:17:52;;;;;;;0.57;0.28;;;20.90;50.10;;;;;;4998740;28;20203;-50
2023/10/22 01:20:19;;;;;;;0.80;0.40;;;20.90;50.10;;;;;;4987640;28;20192;-54
2023/10/22 01:22:45;;;;;;;0.60;0.28;;;20.90;50.20;;;;;;4978746;28;20026;-53
2023/10/22 01:25:11;;;;;;;0.90;0.30;;;20.90;50.20;;;;;;4986505;28;20458;-53
2023/10/22 01:27:38;;;;;;;0.73;0.22;;;20.90;50.20;;;;;;4986449;28;20044;-51
2023/10/22 01:30:05;;;;;;;2.10;0.60;;;20.90;50.20;;;;;;4987528;28;20038;-51
2023/10/22 01:32:31;;;;;;;0.68;0.22;;;20.90;50.30;;;;;;4986594;28;20046;-49
2023/10/22 01:35:01;;;;;;;1.02;0.22;;;20.90;50.30;;;;;;4989193;28;20026;-49
2023/10/22 01:37:27;;;;;;;1.00;0.30;;;20.90;50.30;;;;;;4985992;28;20034;-49
2023/10/22 01:39:54;;;;;;;0.60;0.30;;;20.90;50.40;;;;;;4992935;28;20026;-47
2023/10/22 01:42:20;;;;;;;0.68;0.30;;;20.90;50.40;;;;;;4978579;28;20104;-51
2023/10/22 01:44:46;;;;;;;0.63;0.30;;;20.90;51.00;;;;;;4992424;28;20065;-50
2023/10/22 01:47:12;;;;;;;0.47;0.25;;;20.90;50.40;;;;;;4980319;28;20125;-52
2023/10/22 01:49:38;;;;;;;0.73;0.28;;;20.90;50.40;;;;;;4991699;28;20038;-50
2023/10/22 01:52:04;;;;;;;1.15;0.30;;;20.90;50.50;;;;;;4991550;28;20045;-51
2023/10/22 01:54:30;;;;;;;0.68;0.20;;;20.90;51.10;;;;;;4989675;28;20327;-52
2023/10/22 01:56:56;;;;;;;0.45;0.20;;;20.90;50.40;;;;;;4990847;28;20445;-52
2023/10/22 01:59:22;;;;;;;0.45;0.30;;;20.90;50.50;;;;;;4996637;28;20060;-51
2023/10/22 02:01:48;;;;;;;0.20;0.20;;;20.90;50.50;;;;;;4979409;28;20056;-53
2023/10/22 02:04:14;;;;;;;0.50;0.30;;;20.90;50.50;;;;;;4979359;28;20038;-52
2023/10/22 02:06:40;;;;;;;0.68;0.30;;;20.90;50.50;;;;;;4983149;28;20429;-49
2023/10/22 02:09:06;;;;;;;0.40;0.25;;;20.90;50.50;;;;;;5000415;28;20407;-53
2023/10/22 02:11:33;;;;;;;0.77;0.30;;;20.90;50.60;;;;;;4989845;28;20686;-51
2023/10/22 02:13:59;;;;;;;0.32;0.30;;;20.90;50.60;;;;;;4989352;28;20405;-53
2023/10/22 02:16:25;;;;;;;0.35;0.17;;;20.90;50.60;;;;;;4982059;28;20473;-53
2023/10/22 02:18:51;;;;;;;0.85;0.30;;;20.90;50.70;;;;;;4999880;28;20038;-53
2023/10/22 02:21:19;;;;;;;0.93;0.45;;;20.90;50.70;;;;;;4991213;28;20037;-51
2023/10/22 02:23:45;;;;;;;0.90;0.38;;;20.90;50.80;;;;;;4990027;28;20099;-50
2023/10/22 02:26:11;;;;;;;0.68;0.20;;;20.90;50.80;;;;;;4990569;28;20110;-54
2023/10/22 02:28:36;;;;;;;0.60;0.30;;;20.90;50.90;;;;;;4990211;28;21638;-53
2023/10/22 02:31:04;;;;;;;0.55;0.30;;;20.90;50.90;;;;;;4989477;28;20053;-54
2023/10/22 02:33:30;;;;;;;0.35;0.17;;;20.90;51.00;;;;;;4979167;28;20175;-53
2023/10/22 02:35:56;;;;;;;1.25;0.30;;;20.90;51.10;;;;;;4989317;28;20417;-53
2023/10/22 02:38:21;;;;;;;0.85;0.22;;;20.90;51.10;;;;;;4990014;28;20038;-48
2023/10/22 02:40:48;;;;;;;0.80;0.20;;;20.90;51.20;;;;;;4990101;28;20041;-53
2023/10/22 02:43:15;;;;;;;0.30;0.25;;;20.90;51.30;;;;;;4980203;28;20470;-54
2023/10/22 02:45:54;;;;;;;0.93;0.30;;;20.90;51.30;;;;;;4987692;28;20394;-53
2023/10/22 02:48:20;;;;;;;1.48;0.40;;;20.90;51.40;;;;;;4988737;28;20069;-51
2023/10/22 02:50:47;;;;;;;1.25;0.38;;;20.90;51.50;;;;;;4988573;28;20049;-50
2023/10/22 02:53:13;;;;;;;0.70;0.30;;;20.90;51.60;;;;;;4990325;28;20034;-52
2023/10/22 02:55:39;;;;;;;0.75;0.40;;;20.90;51.70;;;;;;4977947;28;20077;-50
2023/10/22 02:58:06;;;;;;;1.05;0.30;;;20.90;51.80;;;;;;4990417;28;20120;-54
2023/10/22 03:00:35;;;;;;;1.90;0.43;;;20.90;51.80;;;;;;4994221;28;20037;-49
2023/10/22 03:03:03;;;;;;;0.30;0.20;;;20.90;51.80;;;;;;4988686;28;20053;-53
2023/10/22 03:05:33;;;;;;;1.75;0.32;;;20.90;51.80;;;;;;4987593;28;20038;-49
2023/10/22 03:08:00;;;;;;;0.77;0.40;;;20.90;51.90;;;;;;5002288;28;20038;-48
2023/10/22 03:10:25;;;;;;;0.90;0.32;;;20.80;51.80;;;;;;4977895;28;20119;-50
2023/10/22 03:12:51;;;;;;;1.02;0.40;;;20.90;51.90;;;;;;4987514;28;20034;-52
2023/10/22 03:15:18;;;;;;;1.10;0.40;;;20.80;51.90;;;;;;4987563;28;20029;-50
2023/10/22 03:17:44;;;;;;;0.70;0.40;;;20.80;51.90;;;;;;4988633;28;20044;-53
2023/10/22 03:20:10;;;;;;;0.93;0.30;;;20.90;52.00;;;;;;5008550;28;20325;-51
2023/10/22 03:22:36;;;;;;;0.40;0.20;;;20.80;51.90;;;;;;4992213;28;20033;-51
2023/10/22 03:25:07;;;;;;;0.65;0.30;;;20.90;52.00;;;;;;5011657;28;20362;-56
2023/10/22 03:27:34;;;;;;;0.52;0.30;;;20.80;52.00;;;;;;4992785;28;20041;-48
2023/10/22 03:30:00;;;;;;;0.47;0.30;;;20.90;52.00;;;;;;4993230;28;20056;-48
2023/10/22 03:32:25;;;;;;;0.80;0.20;;;20.80;52.00;;;;;;5011307;28;20037;-53
2023/10/22 03:34:51;;;;;;;1.95;0.45;;;20.80;52.00;;;;;;5011015;28;20334;-51
2023/10/22 03:37:17;;;;;;;1.15;0.40;;;20.80;52.00;;;;;;5012148;28;20026;-51
2023/10/22 03:39:43;;;;;;;1.65;0.50;;;20.80;52.00;;;;;;5008828;28;20120;-53
2023/10/22 03:42:09;;;;;;;1.33;0.20;;;20.80;52.10;;;;;;5011696;28;20117;-52
2023/10/22 03:44:35;;;;;;;0.75;0.40;;;20.80;52.10;;;;;;5009531;28;20044;-49
2023/10/22 03:47:00;;;;;;;0.52;0.20;;;20.80;52.10;;;;;;5010837;28;20095;-52
2023/10/22 03:49:29;;;;;;;0.60;0.30;;;20.80;52.10;;;;;;5009388;28;20045;-52
2023/10/22 03:51:55;;;;;;;0.93;0.43;;;20.80;52.10;;;;;;5010092;28;20030;-51
2023/10/22 03:54:20;;;;;;;0.60;0.30;;;20.80;52.20;;;;;;5008487;28;20022;-53
2023/10/22 03:56:46;;;;;;;1.48;0.45;;;20.80;52.20;;;;;;5007744;28;20314;-53
2023/10/22 03:59:12;;;;;;;1.70;0.57;;;20.80;52.20;;;;;;5007317;28;20030;-53
2023/10/22 04:01:38;;;;;;;0.30;0.30;;;20.80;52.20;;;;;;5003749;28;20037;-50
2023/10/22 04:04:04;;;;;;;2.55;0.35;;;20.80;52.30;;;;;;5009579;28;20029;-52
2023/10/22 04:06:31;;;;;;;0.60;0.30;;;20.80;52.40;;;;;;5008972;28;20068;-55
2023/10/22 04:08:57;;;;;;;0.45;0.20;;;20.80;52.40;;;;;;5006821;28;20042;-50
2023/10/22 04:11:22;;;;;;;0.98;0.30;;;20.80;52.40;;;;;;5006572;28;20045;-48
2023/10/22 04:13:48;;;;;;;0.98;0.43;;;20.80;52.50;;;;;;5006392;28;20029;-50
2023/10/22 04:16:16;;;;;;;1.08;0.38;;;20.80;52.50;;;;;;5010381;28;20520;-50
2023/10/22 04:18:41;;;;;;;0.45;0.38;;;20.80;52.60;;;;;;5009855;28;20037;-51
2023/10/22 04:21:17;;;;;;;0.60;0.30;;;20.80;52.60;;;;;;5006280;28;20361;-52
2023/10/22 04:23:43;;;;;;;0.60;0.30;;;20.80;52.60;;;;;;5007336;28;20034;-48
2023/10/22 04:26:17;;;;;;;1.10;0.43;;;20.70;52.60;;;;;;5005086;28;20403;-51
2023/10/22 04:28:45;;;;;;;0.30;0.20;;;20.80;52.70;;;;;;5007766;28;20031;-50
2023/10/22 04:31:12;;;;;;;0.30;0.20;;;20.80;52.70;;;;;;5009482;28;20461;-47
2023/10/22 04:33:38;;;;;;;0.38;0.30;;;20.80;52.70;;;;;;5005731;28;20060;-53
2023/10/22 04:36:04;;;;;;;3.00;0.40;;;20.70;52.70;;;;;;5006778;28;20054;-50
2023/10/22 04:38:31;;;;;;;0.70;0.20;;;20.80;52.80;;;;;;5007560;28;20063;-47
2023/10/22 04:40:57;;;;;;;0.93;0.40;;;20.80;52.80;;;;;;5007374;28;20056;-54
2023/10/22 04:43:23;;;;;;;0.85;0.28;;;20.70;52.70;;;;;;5003932;28;20031;-51
2023/10/22 04:45:50;;;;;;;0.50;0.30;;;20.70;52.80;;;;;;5003255;28;20449;-49
2023/10/22 04:48:16;;;;;;;0.90;0.40;;;20.70;52.80;;;;;;5009753;28;21695;-51
2023/10/22 04:50:44;;;;;;;0.40;0.20;;;20.70;52.80;;;;;;5008305;28;20127;-48
2023/10/22 04:53:10;;;;;;;0.55;0.30;;;20.70;52.70;;;;;;5006427;28;20045;-50
2023/10/22 04:55:36;;;;;;;1.08;0.35;;;20.70;52.70;;;;;;5008484;28;20337;-48
2023/10/22 04:58:02;;;;;;;0.50;0.30;;;20.70;52.80;;;;;;5009777;28;20446;-53
2023/10/22 05:00:29;;;;;;;1.40;0.40;;;20.70;52.70;;;;;;5007735;28;20036;-53
2023/10/22 05:02:55;;;;;;;1.02;0.30;;;20.70;52.70;;;;;;5006398;28;20049;-51
2023/10/22 05:05:21;;;;;;;0.65;0.20;;;20.70;52.70;;;;;;5004004;28;20034;-52
2023/10/22 05:07:50;;;;;;;0.85;0.30;;;20.70;52.70;;;;;;5004327;28;20318;-52
2023/10/22 05:10:16;;;;;;;0.70;0.30;;;20.70;52.70;;;;;;4999073;28;20707;-51
2023/10/22 05:12:42;;;;;;;0.35;0.20;;;20.70;52.70;;;;;;5004360;28;20046;-53
2023/10/22 05:15:08;;;;;;;0.30;0.20;;;20.70;52.80;;;;;;5006543;28;20123;-52
2023/10/22 05:17:34;;;;;;;0.65;0.40;;;20.70;52.70;;;;;;5008195;28;20038;-52
2023/10/22 05:20:00;;;;;;;1.33;0.35;;;20.70;52.70;;;;;;5008099;28;20673;-51
2023/10/22 05:22:26;;;;;;;0.63;0.30;;;20.70;52.80;;;;;;5012423;28;20050;-53
2023/10/22 05:24:52;;;;;;;1.10;0.45;;;20.70;52.80;;;;;;5008783;28;20472;-50
2023/10/22 05:27:18;;;;;;;0.68;0.30;;;20.70;52.80;;;;;;5010619;28;20037;-49
2023/10/22 05:29:47;;;;;;;0.85;0.40;;;20.70;52.80;;;;;;5009893;28;20053;-50
2023/10/22 05:32:14;;;;;;;0.45;0.38;;;20.70;52.80;;;;;;5009974;28;20032;-52
2023/10/22 05:34:42;;;;;;;0.52;0.32;;;20.70;52.80;;;;;;5010627;28;20037;-48
2023/10/22 05:37:08;;;;;;;0.75;0.30;;;20.70;52.90;;;;;;5012184;28;20136;-54
2023/10/22 05:39:36;;;;;;;1.15;0.32;;;20.70;52.90;;;;;;5007628;28;20030;-50
2023/10/22 05:42:05;;;;;;;0.40;0.30;;;20.70;52.90;;;;;;5011405;28;20125;-53
2023/10/22 05:44:31;;;;;;;0.30;0.30;;;20.70;52.90;;;;;;5011646;28;20034;-51
2023/10/22 05:46:56;;;;;;;1.38;0.40;;;20.70;52.90;;;;;;5009989;28;20048;-47
2023/10/22 05:49:22;;;;;;;2.08;0.40;;;20.70;52.90;;;;;;5008831;28;20326;-47
2023/10/22 05:51:50;;;;;;;0.82;0.30;;;20.70;52.90;;;;;;5011262;28;20072;-50
2023/10/22 05:54:15;;;;;;;0.57;0.40;;;20.70;52.90;;;;;;5007013;28;20056;-51
2023/10/22 05:56:41;;;;;;;0.70;0.40;;;20.70;52.90;;;;;;5010214;28;20988;-51
2023/10/22 05:59:09;;;;;;;0.57;0.40;;;20.70;52.90;;;;;;5009505;28;20034;-49
2023/10/22 06:01:38;;;;;;;4.03;0.40;;;20.70;52.90;;;;;;4990816;28;20487;-52
2023/10/22 06:04:08;;;;;;;1.05;0.30;;;20.70;52.90;;;;;;5010561;28;20041;-52
2023/10/22 06:06:34;;;;;;;1.42;0.40;;;20.70;52.90;;;;;;5007953;28;20046;-50
2023/10/22 06:09:00;;;;;;;1.00;0.47;;;20.60;52.90;;;;;;5009461;28;20030;-50
2023/10/22 06:11:26;;;;;;;0.57;0.40;;;20.70;52.90;;;;;;5004614;28;20045;-49
2023/10/22 06:13:52;;;;;;;2.67;0.50;;;20.70;52.90;;;;;;5002957;28;20054;-53
2023/10/22 06:16:18;;;;;;;0.68;0.40;;;20.70;52.90;;;;;;5001761;28;20072;-53
2023/10/22 06:18:43;;;;;;;1.98;0.60;;;20.60;52.90;;;;;;5012176;28;20452;-48
2023/10/22 06:21:13;;;;;;;0.50;0.40;;;20.60;52.80;;;;;;5009692;28;20034;-48
2023/10/22 06:23:38;;;;;;;0.75;0.50;;;20.60;52.80;;;;;;5004166;28;20314;-53
2023/10/22 06:26:04;;;;;;;1.10;0.55;;;20.70;52.90;;;;;;5008137;28;20026;-51
2023/10/22 06:28:31;;;;;;;1.73;0.75;;;20.60;52.90;;;;;;5007982;28;20113;-48
2023/10/22 06:31:05;;;;;;;1.35;0.80;;;20.60;52.90;;;;;;5012891;28;20480;-48
2023/10/22 06:33:32;;;;;;;3.85;0.70;;;20.60;52.90;;;;;;5002236;28;20037;-51
2023/10/22 06:35:58;;;;;;;1.40;0.70;;;20.60;52.90;;;;;;5005838;28;20439;-48
2023/10/22 06:38:24;;;;;;;1.35;0.57;;;20.60;53.00;;;;;;5001435;28;20043;-49
2023/10/22 06:40:49;;;;;;;1.15;0.65;;;20.60;53.00;;;;;;5010921;28;20029;-47
2023/10/22 06:43:15;;;;;;;1.55;0.57;;;20.60;53.00;;;;;;5006346;28;20038;-53
2023/10/22 06:45:41;;;;;;;1.20;0.55;;;20.70;53.10;;;;;;5006805;28;20046;-52
2023/10/22 06:48:07;;;;;;;0.80;0.57;;;20.60;53.10;;;;;;5007824;28;20026;-54
2023/10/22 06:50:33;;;;;;;0.80;0.43;;;20.60;53.10;;;;;;5008724;28;20463;-48
2023/10/22 06:52:58;;;;;;;0.80;0.50;;;20.60;53.10;;;;;;5008969;28;20037;-51
2023/10/22 06:55:24;;;;;;;1.08;0.45;;;20.60;53.20;;;;;;5009291;28;20049;-50
2023/10/22 06:57:50;;;;;;;1.60;0.50;;;20.60;53.20;;;;;;5004303;28;20061;-51
2023/10/22 07:00:16;;;;;;;1.05;0.60;;;20.60;53.20;;;;;;5008015;28;20096;-51
2023/10/22 07:02:43;;;;;;;1.45;0.77;;;20.60;53.30;;;;;;5007071;28;20459;-51
2023/10/22 07:05:10;;;;;;;1.20;0.60;;;20.60;53.30;;;;;;5009509;28;20057;-49
2023/10/22 07:07:41;;;;;;;0.75;0.50;;;20.60;53.30;;;;;;5009885;28;20108;-51
2023/10/22 07:10:09;;;;;;;0.68;0.40;;;20.60;53.30;;;;;;5011569;28;20042;-51
2023/10/22 07:12:35;;;;;;;2.05;0.60;;;20.60;53.30;;;;;;5012374;28;20034;-50
2023/10/22 07:15:01;;;;;;;2.45;0.70;;;20.60;53.30;;;;;;5010643;28;20503;-50
2023/10/22 07:17:27;;;;;;;0.80;0.50;;;20.60;53.30;;;;;;5009014;28;20042;-49
2023/10/22 07:19:53;;;;;;;0.73;0.50;;;20.60;53.30;;;;;;5010681;28;20432;-49
2023/10/22 07:22:19;;;;;;;1.80;0.50;;;20.60;53.30;;;;;;5011378;28;20026;-51
2023/10/22 07:24:45;;;;;;;1.30;0.60;;;20.60;53.30;;;;;;5011871;28;20040;-51
2023/10/22 07:27:12;;;;;;;1.40;0.70;;;20.60;53.30;;;;;;5009401;28;20056;-48
2023/10/22 07:29:37;;;;;;;1.05;0.40;;;20.70;53.30;;;;;;5009850;28;20029;-55
2023/10/22 07:32:04;;;;;;;1.17;0.50;;;20.60;53.20;;;;;;5010715;28;20041;-49
2023/10/22 07:34:30;;;;;;;2.05;0.70;;;20.60;53.30;;;;;;5010545;28;20030;-48
2023/10/22 07:36:56;;;;;;;2.15;0.60;;;20.60;53.30;;;;;;5010584;28;20421;-49
2023/10/22 07:39:21;;;;;;;0.80;0.50;;;20.60;53.30;;;;;;5010248;28;20038;-51
2023/10/22 07:41:47;;;;;;;0.77;0.50;;;20.60;53.30;;;;;;5009634;28;20453;-55
2023/10/22 07:44:13;;;;;;;0.52;0.40;;;20.70;53.40;;;;;;5010417;28;20030;-52
2023/10/22 07:46:39;;;;;;;2.05;0.60;;;20.70;53.40;;;;;;5008805;28;20029;-49
2023/10/22 07:49:05;;;;;;;0.80;0.52;;;20.70;53.40;;;;;;5006840;28;20519;-52
2023/10/22 07:51:31;;;;;;;1.10;0.47;;;20.70;53.40;;;;;;4991512;28;20125;-49
2023/10/22 07:53:57;;;;;;;2.90;0.80;;;20.70;53.40;;;;;;5007942;28;20113;-49
2023/10/22 07:56:22;;;;;;;1.88;0.80;;;20.70;53.40;;;;;;5005569;28;20551;-52
2023/10/22 07:58:49;;;;;;;1.20;0.65;;;20.70;53.30;;;;;;5006733;28;20117;-50
2023/10/22 08:01:15;;;;;;;1.45;0.60;;;20.70;53.20;;;;;;5007386;28;20409;-47
2023/10/22 08:03:40;;;;;;;0.98;0.40;;;20.70;53.20;;;;;;5010055;28;20045;-51
2023/10/22 08:06:06;;;;;;;0.90;0.60;;;20.70;53.10;;;;;;5007218;28;20022;-47
2023/10/22 08:08:33;;;;;;;0.93;0.50;;;20.70;53.00;;;;;;5005086;28;20037;-49
2023/10/22 08:11:01;;;;;;;1.17;0.60;;;20.70;53.00;;;;;;5008361;28;20044;-48
2023/10/22 08:13:27;;;;;;;1.50;0.55;;;20.70;52.90;;;;;;5007938;28;20121;-47
2023/10/22 08:15:54;;;;;;;1.60;0.57;;;20.70;52.90;;;;;;5006974;28;20420;-50
2023/10/22 08:18:20;;;;;;;1.35;0.50;;;20.70;52.90;;;;;;5004229;28;20034;-47
2023/10/22 08:20:46;;;;;;;1.83;0.60;;;20.70;52.90;;;;;;5006678;28;20026;-47
2023/10/22 08:23:12;;;;;;;0.63;0.40;;;20.70;52.90;;;;;;5005761;28;20030;-51
2023/10/22 08:25:38;;;;;;;1.85;0.70;;;20.70;52.80;;;;;;5003950;28;20037;-58
2023/10/22 08:28:04;;;;;;;1.13;0.43;;;20.70;52.80;;;;;;4991925;28;20038;-55
2023/10/22 08:30:30;;;;;;;0.93;0.45;;;20.70;52.70;;;;;;5006909;28;20476;-61
2023/10/22 08:32:56;;;;;;;0.98;0.60;;;20.70;52.70;;;;;;5006897;28;20033;-50
2023/10/22 08:35:23;;;;;;;1.48;0.40;;;20.70;52.70;;;;;;5008130;28;20034;-48
2023/10/22 08:37:49;;;;;;;0.57;0.28;;;20.70;52.70;;;;;;5007686;28;20041;-46
2023/10/22 08:40:15;;;;;;;0.73;0.30;;;20.70;52.60;;;;;;5008001;28;20092;-50
2023/10/22 08:42:40;;;;;;;0.85;0.32;;;20.70;52.60;;;;;;5007110;28;20018;-50
2023/10/22 08:45:10;;;;;;;0.50;0.30;;;20.60;52.50;;;;;;5007234;28;20037;-58
2023/10/22 08:47:36;;;;;;;2.03;0.50;;;20.60;52.60;;;;;;5009251;28;20037;-50
2023/10/22 08:50:03;;;;;;;0.82;0.50;;;20.60;52.60;;;;;;5010273;28;20108;-52
2023/10/22 08:52:29;;;;;;;7.88;3.10;;;20.70;52.60;;;;;;5013849;28;20034;-59
2023/10/22 08:54:55;;;;;;;9.52;4.03;;;20.70;52.90;;;;;;5013527;28;20045;-57
2023/10/22 08:57:24;;;;;;;12.00;5.55;;;20.70;53.50;;;;;;5009864;28;20326;-56
2023/10/22 08:59:50;;;;;;;12.93;6.43;;;20.70;54.10;;;;;;5014405;28;20047;-57
2023/10/22 09:02:21;;;;;;;11.73;5.57;;;20.70;54.80;;;;;;5013073;28;20030;-57
2023/10/22 09:04:47;;;;;;;11.65;6.38;;;20.70;55.30;;;;;;5011515;28;20034;-55
2023/10/22 09:07:13;;;;;;;14.15;6.28;;;20.80;55.90;;;;;;5011928;28;20034;-54
2023/10/22 09:09:40;;;;;;;11.20;5.85;;;20.80;56.40;;;;;;5014798;28;20053;-54
2023/10/22 09:12:10;;;;;;;14.25;5.47;;;20.80;57.40;;;;;;5013208;28;20030;-53
2023/10/22 09:14:37;;;;;;;10.73;5.03;;;20.90;57.00;;;;;;5013769;28;20499;-57
2023/10/22 09:17:16;;;;;;;9.90;4.55;;;20.90;57.10;;;;;;5012294;28;20129;-52
2023/10/22 09:19:48;;;;;;;6.43;3.65;;;20.90;57.40;;;;;;5012660;28;20018;-51
2023/10/22 09:22:25;;;;;;;12.50;6.20;;;20.90;57.30;;;;;;5012271;28;20026;-51
2023/10/22 09:24:54;;;;;;;14.27;7.22;;;20.90;57.40;;;;;;5012996;28;20081;-54
2023/10/22 09:27:25;;;;;;;14.60;7.32;;;21.00;57.90;;;;;;5011643;28;20058;-56
2023/10/22 09:29:52;;;;;;;12.73;6.15;;;21.00;58.40;;;;;;5013682;28;20120;-53
2023/10/22 09:32:19;;;;;;;12.25;6.22;;;21.00;58.50;;;;;;5011921;28;20030;-56
2023/10/22 09:34:46;;;;;;;12.05;6.40;;;21.00;58.40;;;;;;5012324;28;20321;-47
2023/10/22 09:37:12;;;;;;;13.23;6.63;;;21.00;58.70;;;;;;5013771;28;20038;-54
2023/10/22 09:39:39;;;;;;;10.68;6.18;;;21.10;58.90;;;;;;5012309;28;20025;-55
2023/10/22 09:42:06;;;;;;;12.88;7.40;;;21.10;59.00;;;;;;5011323;28;20029;-55
2023/10/22 09:44:33;;;;;;;12.13;6.30;;;21.10;59.00;;;;;;5011504;28;20096;-46
2023/10/22 09:47:02;;;;;;;7.68;3.50;;;21.10;58.90;;;;;;5009640;28;20029;-49
2023/10/22 09:49:30;;;;;;;3.42;1.55;;;21.20;57.90;;;;;;5010178;28;20030;-48
2023/10/22 09:51:59;;;;;;;2.58;1.20;;;21.10;56.60;;;;;;5009696;28;20022;-48
2023/10/22 09:54:36;;;;;;;4.53;1.40;;;21.00;55.70;;;;;;5011646;28;20148;-48
2023/10/22 09:57:16;;;;;;;2.53;1.30;;;21.00;55.30;;;;;;5010356;28;20029;-48
2023/10/22 09:59:44;;;;;;;4.70;1.75;;;20.90;55.00;;;;;;5009665;28;20366;-47
2023/10/22 10:02:18;;;;;;;3.53;1.42;;;20.90;55.00;;;;;;5008280;28;20524;-46
2023/10/22 10:04:44;;;;;;;3.85;1.80;;;20.90;55.00;;;;;;5008467;28;20064;-45
2023/10/22 10:07:10;;;;;;;3.20;1.63;;;20.80;55.00;;;;;;4991063;28;20406;-47
2023/10/22 10:09:37;;;;;;;3.10;1.45;;;20.80;55.00;;;;;;5009437;28;20041;-47
2023/10/22 10:12:06;;;;;;;3.70;1.38;;;20.70;55.00;;;;;;5010865;28;20041;-44
2023/10/22 10:14:45;;;;;;;1.90;1.13;;;20.70;55.00;;;;;;4994455;28;20040;-49
2023/10/22 10:17:13;;;;;;;3.63;1.38;;;20.70;54.80;;;;;;5008421;28;20113;-50
2023/10/22 10:19:39;;;;;;;2.30;1.10;;;20.70;54.70;;;;;;5007208;28;20029;-50
2023/10/22 10:22:06;;;;;;;3.00;1.42;;;20.70;54.60;;;;;;5009740;28;20033;-53
2023/10/22 10:24:33;;;;;;;4.43;1.50;;;20.80;54.50;;;;;;4992416;28;20040;-48
2023/10/22 10:26:58;;;;;;;3.22;1.40;;;20.80;54.30;;;;;;4995215;28;20480;-52
2023/10/22 10:29:32;;;;;;;3.25;1.20;;;20.80;54.40;;;;;;5009186;28;20061;-53
2023/10/22 10:32:13;;;;;;;2.65;1.02;;;20.90;54.40;;;;;;5007977;28;20429;-58
2023/10/22 10:34:44;;;;;;;2.28;1.15;;;20.90;55.10;;;;;;5008598;28;20030;-51
2023/10/22 10:37:20;;;;;;;2.25;0.80;;;20.90;54.20;;;;;;5009779;28;20079;-52
2023/10/22 10:39:51;;;;;;;1.77;0.90;;;20.90;54.00;;;;;;5009978;28;20761;-52
2023/10/22 10:42:39;;;;;;;1.45;0.77;;;21.00;53.80;;;;;;5007241;28;20030;-51
2023/10/22 10:45:07;;;;;;;2.90;0.93;;;21.00;53.60;;;;;;4996002;28;20128;-53
2023/10/22 10:47:37;;;;;;;5.15;1.55;;;21.00;54.20;;;;;;5007869;28;20119;-53
2023/10/22 10:50:17;;;;;;;3.58;1.13;;;21.00;53.50;;;;;;5006905;28;20049;-54
2023/10/22 10:52:46;;;;;;;2.97;0.90;;;21.00;53.30;;;;;;5007705;28;20079;-53
2023/10/22 10:55:15;;;;;;;2.95;1.02;;;21.00;53.20;;;;;;5007921;28;20026;-54
2023/10/22 10:57:48;;;;;;;1.45;0.70;;;21.10;53.10;;;;;;5009526;28;20026;-49
2023/10/22 11:00:19;;;;;;;2.40;0.90;;;21.00;52.90;;;;;;5007647;28;20032;-52
2023/10/22 11:02:49;;;;;;;1.95;0.70;;;21.00;52.80;;;;;;5008560;28;20025;-55
2023/10/22 11:05:18;;;;;;;2.25;1.00;;;21.00;52.70;;;;;;5008605;28;20471;-52
2023/10/22 11:07:44;;;;;;;1.00;0.52;;;21.00;52.50;;;;;;5006877;28;20030;-55
2023/10/22 11:10:16;;;;;;;1.50;0.60;;;21.10;52.50;;;;;;5008309;28;20045;-53
2023/10/22 11:12:44;;;;;;;1.88;0.70;;;21.00;52.30;;;;;;5008597;28;20033;-53
2023/10/22 11:15:12;;;;;;;1.38;0.60;;;21.00;52.30;;;;;;5009600;28;20091;-53
2023/10/22 11:17:40;;;;;;;1.05;0.43;;;21.00;52.10;;;;;;5008212;28;20038;-51
2023/10/22 11:20:07;;;;;;;1.67;0.63;;;21.10;52.20;;;;;;5008279;28;20037;-53
2023/10/22 11:22:38;;;;;;;1.38;0.68;;;21.10;52.10;;;;;;5005991;28;20394;-51
2023/10/22 11:25:07;;;;;;;1.02;0.60;;;21.00;51.80;;;;;;5006281;28;20392;-52
2023/10/22 11:27:37;;;;;;;2.35;0.60;;;21.10;51.80;;;;;;5007722;28;20034;-51
2023/10/22 11:30:03;;;;;;;1.77;0.50;;;21.10;51.70;;;;;;5006688;28;20148;-51
2023/10/22 11:32:29;;;;;;;0.98;0.40;;;21.10;51.60;;;;;;5006244;28;20144;-51
2023/10/22 11:35:04;;;;;;;1.27;0.70;;;21.10;51.50;;;;;;5106473;27;20403;-56
2023/10/22 11:37:41;;;;;;;0.57;0.47;;;21.10;51.50;;;;;;5091249;28;20111;-56
2023/10/22 11:40:41;;;;;;;1.50;0.55;;;21.10;51.40;;;;;;5100062;28;20024;-55
2023/10/22 11:43:17;;;;;;;0.63;0.40;;;21.10;51.30;;;;;;5090996;28;20025;-53
2023/10/22 11:46:09;;;;;;;1.83;0.70;;;21.10;51.30;;;;;;5089465;28;20099;-52
2023/10/22 11:48:45;;;;;;;1.05;0.35;;;21.10;51.20;;;;;;5088649;28;20050;-57
2023/10/22 11:51:10;;;;;;;1.88;0.50;;;21.10;51.30;;;;;;5093169;28;20048;-55
2023/10/22 11:53:45;;;;;;;1.35;0.60;;;21.10;51.30;;;;;;5095831;28;20130;-60
2023/10/22 11:56:11;;;;;;;1.35;0.60;;;21.20;51.40;;;;;;5081984;28;20553;-52
2023/10/22 11:58:37;;;;;;;1.02;0.52;;;21.10;51.40;;;;;;5105021;28;20028;-54
2023/10/22 12:01:03;;;;;;;1.85;0.50;;;21.20;51.50;;;;;;5102084;28;21135;-48
2023/10/22 12:03:29;;;;;;;1.67;0.55;;;21.20;51.50;;;;;;5099352;28;20028;-51
2023/10/22 12:05:55;;;;;;;0.73;0.50;;;21.20;51.30;;;;;;5103194;28;20031;-50
2023/10/22 12:08:22;;;;;;;0.70;0.50;;;21.20;51.20;;;;;;5069476;28;20028;-50
2023/10/22 12:10:48;;;;;;;1.60;0.60;;;21.20;51.10;;;;;;5090100;28;20021;-51
2023/10/22 12:13:14;;;;;;;0.88;0.52;;;21.20;50.90;;;;;;5090324;28;20032;-48
2023/10/22 12:15:44;;;;;;;1.27;0.60;;;21.20;50.80;;;;;;5085679;28;20039;-50
2023/10/22 12:18:10;;;;;;;1.25;0.55;;;21.20;50.70;;;;;;5084999;28;20431;-53
2023/10/22 12:20:37;;;;;;;1.05;0.40;;;21.20;50.70;;;;;;5069096;28;20036;-52
2023/10/22 12:23:04;;;;;;;1.05;0.55;;;21.20;50.60;;;;;;5084623;28;20039;-53
2023/10/22 12:25:33;;;;;;;1.48;0.50;;;21.20;50.60;;;;;;5086652;28;20447;-55
2023/10/22 12:27:59;;;;;;;1.98;0.65;;;21.20;50.50;;;;;;5086889;28;20104;-52
2023/10/22 12:30:26;;;;;;;1.00;0.43;;;21.20;50.40;;;;;;5085315;28;20032;-52
2023/10/22 12:32:52;;;;;;;1.98;0.60;;;21.20;50.30;;;;;;5086507;28;20028;-52
2023/10/22 12:35:19;;;;;;;1.38;0.60;;;21.20;50.30;;;;;;5086896;28;20031;-54
2023/10/22 12:37:44;;;;;;;1.90;0.88;;;21.20;50.60;;;;;;5087293;28;20123;-53
2023/10/22 12:40:11;;;;;;;0.90;0.52;;;21.20;50.20;;;;;;5089226;28;20123;-54
2023/10/22 12:42:41;;;;;;;1.58;0.70;;;21.20;50.20;;;;;;5087331;28;21206;-48
2023/10/22 12:45:12;;;;;;;1.00;0.57;;;21.20;50.10;;;;;;5078145;28;20134;-52
2023/10/22 12:47:39;;;;;;;1.35;0.52;;;21.30;50.10;;;;;;5069441;28;20401;-51